Latest Weather Observations for Cobar Airport

IDN60801

Issued at 3:04 pm EDT Monday 26 January 2015 (issued every 30 minutes, with the page automatically refreshed every 10 minutes)

About weather observations | Map of weather stations | Latest weather observations for NSW | Other Formats
Station Details ID: 048237 Name: COBAR AIRPORT AWS Lat: -31.54 Lon: 145.80 Height: 218.0 m
Data from the previous 72 hours. | See also: Recent months for locations in New South Wales
Date/Time
EDT
Temp
°C
App
Temp
°C
Dew
Point
Rel
Hum
%
Delta-T
°C
Wind Press
QNH
hPa
Press
MSL
hPa
Rain
since 9 am
mm
Dir
 
Spd
km/h
Gust
km/h
Spd
kts
Gust
kts
26/03:00pm 28.9 23.9 4.4 21 12.7 S 20 35 11 19 1009.9 1008.5 0.0
26/02:30pm 28.4 22.4 3.3 20 12.7 SSW 24 33 13 18 1010.1 1008.7 0.0
26/02:00pm 27.4 21.1 1.8 19 12.5 S 24 39 13 21 1010.5 1009.1 0.0
26/01:30pm 27.7 21.6 2.7 20 12.4 S 24 33 13 18 1010.9 1009.5 0.0
26/01:00pm 27.3 21.3 3.1 21 12.1 S 24 30 13 16 1011.2 1009.8 0.0
26/12:30pm 26.7 20.7 3.2 22 11.7 S 24 32 13 17 1011.6 1010.2 0.0
26/12:00pm 26.1 19.6 2.7 22 11.5 S 26 39 14 21 1011.9 1010.5 0.0
26/11:30am 25.8 19.7 2.5 22 11.4 S 24 39 13 21 1012.1 1010.7 0.0
26/11:00am 24.7 18.6 2.8 24 10.7 S 24 37 13 20 1012.4 1011.0 0.0
26/10:30am 24.4 18.6 2.5 24 10.6 S 22 32 12 17 1012.6 1011.2 0.0
26/10:00am 23.0 17.2 2.5 26 9.8 S 22 32 12 17 1012.7 1011.3 0.0
26/09:30am 21.9 16.4 2.1 27 9.4 SSE 20 35 11 19 1012.7 1011.3 0.0
26/09:00am 21.0 15.2 2.3 29 8.8 SSE 22 32 12 17 1012.6 1011.2 0.0
26/08:30am 20.0 14.3 2.8 32 8.1 S 22 30 12 16 1012.1 1010.7 0.0
26/08:00am 18.5 13.3 2.4 34 7.5 S 19 22 10 12 1011.7 1010.3 0.0
26/07:30am 17.3 13.7 2.9 38 6.7 S 11 15 6 8 1011.5 1010.1 0.0
26/07:00am 16.5 13.0 3.6 42 6.0 S 11 13 6 7 1011.1 1009.7 0.0
26/06:30am 15.6 13.1 4.6 48 5.2 SSW 7 11 4 6 1011.0 1009.6 0.0
26/06:00am 16.5 14.0 3.9 43 5.9 S 6 7 3 4 1010.6 1009.2 0.0
26/05:30am 16.4 13.8 4.4 45 5.7 S 7 9 4 5 1010.2 1008.8 0.0
26/05:00am 17.5 14.4 3.8 40 6.5 S 9 13 5 7 1010.0 1008.6 0.0
26/04:30am 17.8 14.7 3.7 39 6.7 S 9 11 5 6 1010.0 1008.6 0.0
26/04:00am 18.1 15.6 3.6 38 6.9 S 6 9 3 5 1009.9 1008.5 0.0
26/03:30am 19.7 16.8 2.6 32 8.0 SSE 7 11 4 6 1009.7 1008.4 0.0
26/03:00am 20.6 16.9 2.4 30 8.6 SSE 11 15 6 8 1009.6 1008.3 0.0
26/02:30am 21.3 16.1 2.6 29 8.9 S 19 24 10 13 1009.4 1008.0 0.0
26/02:00am 22.1 15.2 2.8 28 9.3 S 28 33 15 18 1009.4 1008.0 0.0
26/01:30am 22.3 16.4 3.9 30 9.0 S 24 32 13 17 1009.4 1008.0 0.0
26/01:00am 22.9 17.0 3.9 29 9.4 S 24 32 13 17 1009.5 1008.1 0.0
26/12:30am 23.2 17.9 5.1 31 9.1 S 22 30 12 16 1009.5 1008.1 0.0
26/12:00am 23.9 19.1 5.8 31 9.3 S 20 28 11 15 1009.6 1008.3 0.0
 
Date/Time
EDT
Temp
°C
App
Temp
°C
Dew
Point
Rel
Hum
%
Delta-T
°C
Wind Press
QNH
hPa
Press
MSL
hPa
Rain
since 9 am
mm
Dir
 
Spd
km/h
Gust
km/h
Spd
kts
Gust
kts
25/11:30pm 24.5 19.9 6.3 31 9.5 S 20 28 11 15 1009.4 1008.0 0.0
25/11:00pm 25.1 19.9 7.3 32 9.5 SSW 24 30 13 16 1009.3 1007.9 0.0
25/10:30pm 25.8 21.5 7.9 32 9.7 SSW 20 28 11 15 1009.2 1007.8 0.0
25/10:00pm 26.4 22.4 8.4 32 9.8 SSW 19 24 10 13 1009.0 1007.6 0.0
25/09:30pm 26.8 22.9 8.7 32 9.9 SSW 19 24 10 13 1008.5 1007.1 0.0
25/09:00pm 27.5 23.8 9.3 32 10.2 S 19 22 10 12 1008.2 1006.8 0.0
25/08:30pm 28.3 24.1 9.6 31 10.5 SSW 22 30 12 16 1008.0 1006.6 0.0
25/08:00pm 29.5 25.3 9.6 29 11.3 SSW 22 30 12 16 1007.5 1006.1 0.0
25/07:30pm 30.6 26.9 10.0 28 11.8 SW 20 28 11 15 1007.3 1005.9 0.0
25/07:00pm 31.0 26.4 9.8 27 12.1 SW 24 33 13 18 1007.0 1005.6 0.0
25/06:30pm 31.6 27.0 9.8 26 12.5 SSW 24 32 13 17 1006.7 1005.3 0.0
25/06:00pm 31.7 27.3 10.4 27 12.4 SW 24 33 13 18 1006.6 1005.2 0.0
25/05:30pm 32.5 29.1 11.1 27 12.6 SW 20 28 11 15 1006.4 1005.0 0.0
25/05:00pm 31.7 28.8 11.0 28 12.1 SSW 17 28 9 15 1006.3 1004.9 0.0
25/04:30pm 32.0 28.9 11.7 28 12.0 SW 19 35 10 19 1006.4 1005.0 0.0
25/04:00pm 31.7 28.1 12.0 30 11.7 WSW 22 30 12 16 1006.5 1005.1 0.0
25/03:30pm 32.3 30.2 12.5 30 11.9 SSW 15 28 8 15 1006.6 1005.2 0.0
25/03:00pm 30.9 28.7 10.8 29 11.7 WSW 13 24 7 13 1006.9 1005.5 0.0
25/02:30pm 30.9 27.7 11.3 30 11.5 WSW 19 28 10 15 1007.0 1005.6 0.0
25/02:00pm 29.8 27.7 9.9 29 11.4 SW 11 26 6 14 1007.3 1005.9 0.0
25/01:30pm 29.3 26.6 10.4 31 10.8 SW 15 28 8 15 1007.5 1006.1 0.0
25/01:00pm 28.8 26.3 10.9 33 10.3 SSE 15 22 8 12 1007.7 1006.3 0.0
25/12:30pm 27.8 25.3 9.6 32 10.2 S 13 28 7 15 1008.0 1006.6 0.0
25/12:00pm 26.8 23.8 9.2 33 9.8 S 15 24 8 13 1008.3 1006.9 0.0
25/11:30am 26.1 23.1 10.7 38 8.7 SSW 17 22 9 12 1008.4 1007.0 0.0
25/11:00am 25.3 21.7 10.7 40 8.3 SSW 20 28 11 15 1008.4 1007.0 0.0
25/10:30am 24.7 21.0 10.2 40 8.1 SSW 20 28 11 15 1008.4 1007.0 0.0
25/10:00am 23.8 18.9 10.1 42 7.6 SSW 26 35 14 19 1008.2 1006.8 0.0
25/09:30am 23.4 18.8 11.1 46 6.9 SSW 26 35 14 19 1008.3 1006.9 0.0
25/09:00am 22.6 16.7 10.4 46 6.8 SSW 32 43 17 23 1008.1 1006.7 5.0
25/08:30am 22.5 17.7 11.6 50 6.2 SSW 28 35 15 19 1007.9 1006.5 5.0
25/08:00am 22.6 21.2 16.9 70 3.5 SW 20 32 11 17 1007.6 1006.2 5.0
25/07:30am 21.5 23.7 21.2 98 0.2 SW 11 17 6 9 1006.8 1005.4 5.0
25/07:00am 20.7 23.5 20.5 99 0.1 W 6 9 3 5 1006.2 1004.8 5.0
25/06:30am 20.7 23.3 20.5 99 0.1 WNW 7 9 4 5 1006.0 1004.6 5.0
25/06:00am 20.9 23.6 20.7 99 0.1 WSW 7 9 4 5 1005.7 1004.3 5.0
25/05:30am 20.8 23.5 20.6 99 0.1 SW 7 11 4 6 1005.4 1003.9 5.0
25/05:00am 20.7 23.5 20.5 99 0.1 SW 6 11 3 6 1005.4 1003.9 5.0
25/04:30am 20.9 23.2 20.7 99 0.1 S 9 9 5 5 1004.9 1003.5 5.0
25/04:00am 20.9 23.8 20.7 99 0.1 SW 6 7 3 4 1005.1 1003.6 5.0
25/03:30am 20.9 23.2 20.7 99 0.1 SW 9 15 5 8 1005.3 1003.8 5.0
25/03:00am 21.3 23.8 21.1 99 0.1 WNW 9 13 5 7 1005.2 1003.7 5.0
25/02:30am 21.7 25.0 21.5 99 0.1 NNW 6 9 3 5 1005.2 1003.7 5.0
25/02:00am 21.7 24.1 21.5 99 0.1 NE 11 13 6 7 1005.3 1003.8 5.0
25/01:30am 21.7 23.7 21.5 99 0.1 NE 13 19 7 10 1005.3 1003.8 5.0
25/01:00am 21.6 23.2 21.4 99 0.1 NNW 15 22 8 12 1006.6 1005.2 4.4
25/12:30am 22.4 21.9 20.7 90 1.1 WNW 24 35 13 19 1007.5 1006.1 4.2
25/12:00am 22.7 25.5 20.4 87 1.5 NNE 6 7 3 4 1006.1 1004.7 4.2
 
Date/Time
EDT
Temp
°C
App
Temp
°C
Dew
Point
Rel
Hum
%
Delta-T
°C
Wind Press
QNH
hPa
Press
MSL
hPa
Rain
since 9 am
mm
Dir
 
Spd
km/h
Gust
km/h
Spd
kts
Gust
kts
24/11:30pm 22.7 24.7 19.9 84 1.8 ENE 9 15 5 8 1006.0 1004.6 4.2
24/11:00pm 22.9 23.6 19.7 82 2.1 NE 15 20 8 11 1006.0 1004.6 4.2
24/10:30pm 23.0 23.0 20.1 84 1.9 NE 20 32 11 17 1005.6 1004.2 4.2
24/10:00pm 23.4 22.5 19.8 80 2.3 NE 24 37 13 20 1005.5 1004.1 4.2
24/09:30pm 23.3 23.7 20.6 85 1.8 NNE 19 28 10 15 1006.0 1004.6 4.2
24/09:00pm 22.9 23.0 21.2 90 1.1 NNE 22 30 12 16 1005.8 1004.4 4.2
24/08:30pm 23.4 21.8 19.1 77 2.8 NE 26 37 14 20 1004.8 1003.4 3.6
24/08:00pm 25.3 25.6 18.7 67 4.2 NE 15 20 8 11 1004.6 1003.2 0.6
24/07:30pm 25.5 26.5 19.4 69 4.0 NE 13 17 7 9 1003.9 1002.5 0.6
24/07:00pm 24.7 24.5 19.3 72 3.5 NE 19 26 10 14 1003.8 1002.4 0.6
24/06:30pm 25.1 25.4 19.5 71 3.6 ENE 17 24 9 13 1004.1 1002.7 0.6
24/06:00pm 24.6 26.0 20.3 77 2.8 E 13 15 7 8 1003.7 1002.3 0.6
24/05:30pm 25.1 24.2 18.1 65 4.4 NNW 20 24 11 13 1004.1 1002.7 0.0
24/05:00pm 26.0 23.8 16.0 54 6.2 NNW 22 37 12 20 1004.1 1002.7 0.0
24/04:30pm 27.8 24.6 16.4 50 7.1 NW 28 41 15 22 1004.7 1003.3 0.0
24/04:00pm 28.5 25.7 15.4 45 8.1 W 24 43 13 23 1003.7 1002.3 0.0
24/03:30pm 31.4 28.5 16.2 40 9.6 NNW 26 46 14 25 1002.9 1001.5 0.0
24/03:27pm 31.6 29.2 15.5 37 10.1 NNW 22 46 12 25 1003.0 1001.6 0.0
24/03:00pm 34.2 34.2 15.1 31 12.0 NW 9 17 5 9 1003.5 1002.1 0.0
24/02:30pm 35.4 35.8 16.2 32 12.3 S 9 15 5 8 1004.2 1002.8 0.0
24/02:00pm 35.2 34.4 16.0 31 12.3 WNW 15 24 8 13 1004.8 1003.4 0.0
24/01:30pm 33.3 34.1 15.8 35 11.0 NNW 6 17 3 9 1005.2 1003.7 0.0
24/01:00pm 33.3 33.3 16.2 36 10.9 NW 11 20 6 11 1005.8 1004.4 0.0
24/12:30pm 32.8 32.8 16.2 37 10.5 NNW 11 20 6 11 1006.2 1004.8 0.0
24/12:00pm 31.3 31.0 16.5 41 9.4 WNW 13 20 7 11 1006.6 1005.2 0.0
24/11:30am 30.9 29.7 16.1 41 9.3 NNW 17 24 9 13 1006.8 1005.4 0.0
24/11:00am 31.2 29.4 16.0 40 9.6 NNW 20 28 11 15 1006.9 1005.5 0.0
24/10:30am 30.8 29.6 16.0 40 9.3 NNW 17 26 9 14 1007.1 1005.7 0.0
24/10:00am 29.6 28.5 16.4 45 8.3 N 17 24 9 13 1007.2 1005.8 0.0
24/09:30am 28.7 27.0 16.3 47 7.8 N 20 30 11 16 1007.3 1005.9 0.0
24/09:00am 27.9 26.5 17.1 51 6.8 NNE 20 26 11 14 1007.3 1005.9 0.0
24/08:30am 26.9 26.0 16.8 54 6.3 N 17 20 9 11 1007.1 1005.7 0.0
24/08:00am 26.4 25.1 16.9 56 6.0 NE 19 24 10 13 1006.8 1005.4 0.0
24/07:30am 25.9 25.8 17.0 58 5.6 NNE 13 17 7 9 1006.7 1005.3 0.0
24/07:00am 25.4 25.6 16.8 59 5.4 NNE 11 13 6 7 1006.6 1005.2 0.0
24/06:30am 25.5 24.9 16.6 58 5.5 NE 15 19 8 10 1006.4 1005.0 0.0
24/06:00am 25.5 24.9 16.6 58 5.5 NE 15 19 8 10 1006.3 1004.9 0.0
24/05:30am 25.5 24.9 16.6 58 5.5 NE 15 19 8 10 1006.4 1005.0 0.0
24/05:00am 25.9 25.7 16.7 57 5.8 NNE 13 15 7 8 1006.3 1004.9 0.0
24/04:30am 26.8 26.6 16.7 54 6.3 NNE 13 17 7 9 1006.2 1004.8 0.0
24/04:00am 27.1 27.5 16.4 52 6.7 N 9 11 5 6 1006.2 1004.8 0.0
24/03:30am 27.7 28.6 16.6 50 7.0 WNW 7 11 4 6 1006.3 1004.9 0.0
24/03:00am 27.8 28.2 16.4 50 7.1 WNW 9 17 5 9 1006.1 1004.7 0.0
24/02:30am 27.6 28.1 16.6 51 6.9 NNE 9 13 5 7 1005.7 1004.3 0.0
24/02:00am 27.9 26.7 16.2 49 7.3 NNE 17 20 9 11 1005.7 1004.3 0.0
24/01:30am 28.4 26.7 16.3 47 7.6 N 20 28 11 15 1005.9 1004.5 0.0
24/01:00am 28.8 27.7 16.4 47 7.8 N 17 24 9 13 1005.9 1004.5 0.0
24/12:30am 29.1 27.9 16.0 45 8.2 NNE 17 24 9 13 1006.1 1004.7 0.0
24/12:00am 29.8 27.2 15.9 43 8.7 NNE 24 32 13 17 1005.9 1004.5 0.0
 
Date/Time
EDT
Temp
°C
App
Temp
°C
Dew
Point
Rel
Hum
%
Delta-T
°C
Wind Press
QNH
hPa
Press
MSL
hPa
Rain
since 9 am
mm
Dir
 
Spd
km/h
Gust
km/h
Spd
kts
Gust
kts
23/11:30pm 29.9 27.9 15.6 42 8.9 NE 20 28 11 15 1005.9 1004.5 0.0
23/11:00pm 30.5 27.8 14.6 38 9.8 NE 22 32 12 17 1005.6 1004.2 0.0
23/10:30pm 30.4 29.9 13.7 36 10.1 NNE 9 11 5 6 1005.4 1003.9 0.0
23/10:00pm 31.1 30.1 13.4 34 10.7 NE 11 13 6 7 1005.1 1003.6 0.0
23/09:30pm 31.9 31.0 13.6 32 11.1 NE 11 15 6 8 1004.8 1003.4 0.0
23/09:00pm 32.5 30.7 13.2 31 11.7 NE 15 20 8 11 1004.6 1003.2 0.0
23/08:30pm 33.2 31.4 13.3 30 12.1 NE 15 20 8 11 1004.4 1003.0 0.0
23/08:00pm 34.8 34.3 12.5 26 13.5 ENE 7 11 4 6 1004.0 1002.6 0.0
23/07:30pm 35.5 34.2 12.5 25 14.0 W 11 15 6 8 1003.7 1002.3 0.0
23/07:00pm 35.6 34.1 11.9 24 14.3 W 11 15 6 8 1003.4 1002.0 0.0
23/06:30pm 35.8 34.0 12.1 24 14.3 NNW 13 19 7 10 1003.3 1001.9 0.0
23/06:00pm 35.7 34.4 12.6 25 14.1 NNE 11 19 6 10 1003.5 1002.1 0.0
23/05:30pm 35.5 35.1 12.5 25 14.0 NE 6 15 3 8 1003.7 1002.3 0.0
23/05:00pm 36.4 36.6 13.2 25 14.3 NNW 4 9 2 5 1003.9 1002.5 0.0
23/04:30pm 34.5 33.5 12.2 26 13.4 SE 9 13 5 7 1004.2 1002.8 0.0
23/04:00pm 35.3 35.3 13.5 27 13.4 E 6 15 3 8 1004.6 1003.2 0.0
23/03:30pm 34.5 32.9 12.8 27 13.2 NNE 13 19 7 10 1004.9 1003.5 0.0

Other Formats:

Comma delimited format used in spreadsheet applications
http://www.bom.gov.au/fwo/IDN60801/IDN60801.94710.axf

JavaScript Object Notation format (JSON) in row-major order
http://www.bom.gov.au/fwo/IDN60801/IDN60801.94710.json